Time;durP1;ratioP1;P1;durP2;ratioP2;P2;SDS_P1;SDS_P2;PMS_P1;PMS_P2;Temp;Humidity;BMP_temperature;BMP_pressure;BME280_temperature;BME280_humidity;BME280_pressure;Samples;Min_cycle;Max_cycle;Signal;HPM_P1;HPM_P2
2022/10/13 00:01:47;;;;;;;;;;;;;;;14.04;59.27;100700.19;4446518;32;19973;-79
2022/10/13 00:04:14;;;;;;;;;;;;;;;14.06;59.08;100698.50;4446041;32;20045;-82
2022/10/13 00:06:41;;;;;;;;;;;;;;;13.96;59.26;100703.56;4446010;32;19989;-80
2022/10/13 00:09:08;;;;;;;;;;;;;;;14.09;58.83;100703.75;4454820;32;20034;-82
2022/10/13 00:11:35;;;;;;;;;;;;;;;14.22;58.28;100695.28;4446217;32;20003;-80
2022/10/13 00:14:03;;;;;;;;;;;;;;;14.04;58.84;100684.56;4447307;32;19985;-79
2022/10/13 00:16:32;;;;;;;;;;;;;;;13.84;59.37;100697.28;4447616;32;19993;-80
2022/10/13 00:18:59;;;;;;;;;;;;;;;14.02;58.76;100691.50;4438759;32;19982;-80
2022/10/13 00:21:26;;;;;;;;;;;;;;;13.81;59.41;100694.63;4431640;32;19983;-80
2022/10/13 00:23:53;;;;;;;;;;;;;;;14.03;58.85;100695.84;4446043;32;19985;-82
2022/10/13 00:26:21;;;;;;;;;;;;;;;14.12;58.61;100698.59;4456231;32;20037;-81
2022/10/13 00:28:47;;;;;;;;;;;;;;;13.71;60.01;100697.06;4433734;32;20764;-81
2022/10/13 00:31:19;;;;;;;;;;;;;;;13.95;59.13;100701.81;4441319;32;20012;-82
2022/10/13 00:33:48;;;;;;;;;;;;;;;14.13;58.83;100695.13;4446032;32;19977;-80
2022/10/13 00:36:16;;;;;;;;;;;;;;;13.89;59.75;100698.25;4444961;32;19989;-81
2022/10/13 00:38:43;;;;;;;;;;;;;;;13.96;59.45;100698.34;4456820;32;19993;-81
2022/10/13 00:41:10;;;;;;;;;;;;;;;14.16;58.66;100700.41;4433163;32;20258;-81
2022/10/13 00:43:51;;;;;;;;;;;;;;;14.07;59.01;100701.16;4459418;32;20313;-80
2022/10/13 00:46:19;;;;;;;;;;;;;;;13.71;60.33;100698.81;4466231;32;20276;-81
2022/10/13 00:48:48;;;;;;;;;;;;;;;13.95;59.35;100691.41;4459024;32;19999;-82
2022/10/13 00:51:15;;;;;;;;;;;;;;;13.99;59.49;100692.34;4446326;32;19973;-79
2022/10/13 00:53:42;;;;;;;;;;;;;;;13.93;59.84;100693.09;4441655;32;19981;-79
2022/10/13 00:56:10;;;;;;;;;;;;;;;13.80;60.34;100696.34;4445843;32;20040;-80
2022/10/13 00:58:39;;;;;;;;;;;;;;;13.72;60.47;100687.56;4458752;32;20016;-79
2022/10/13 01:01:06;;;;;;;;;;;;;;;13.92;59.96;100686.16;4462981;32;20344;-82
2022/10/13 01:03:33;;;;;;;;;;;;;;;14.11;59.35;100681.25;4459670;32;20045;-80
2022/10/13 01:06:00;;;;;;;;;;;;;;;14.18;59.06;100683.06;4449595;32;20359;-79
2022/10/13 01:08:27;;;;;;;;;;;;;;;14.05;59.61;100681.16;4448988;32;19985;-82
2022/10/13 01:11:26;;;;;;;;;;;;;;;13.78;60.18;100689.38;4444617;32;19976;-82
2022/10/13 01:13:59;;;;;;;;;;;;;;;13.71;60.22;100685.78;4440789;32;19973;-82
2022/10/13 01:16:25;;;;;;;;;;;;;;;13.76;59.88;100685.88;4447138;32;20004;-82
2022/10/13 01:19:09;;;;;;;;;;;;;;;13.85;59.51;100689.53;4446960;32;20036;-79
2022/10/13 01:21:39;;;;;;;;;;;;;;;13.87;59.29;100687.78;4432499;32;20310;-81
2022/10/13 01:24:29;;;;;;;;;;;;;;;14.01;58.70;100692.34;4465305;32;19993;-80
2022/10/13 01:27:16;;;;;;;;;;;;;;;14.11;58.36;100686.44;4442355;32;19981;-82
2022/10/13 01:30:02;;;;;;;;;;;;;;;13.99;59.09;100694.06;4453888;32;20033;-79
2022/10/13 01:32:33;;;;;;;;;;;;;;;14.24;58.31;100690.97;4474294;32;20038;-80
2022/10/13 01:35:19;;;;;;;;;;;;;;;14.15;58.36;100689.09;4457750;32;20007;-78
2022/10/13 01:37:46;;;;;;;;;;;;;;;13.90;59.19;100676.56;4447417;32;19993;-82
2022/10/13 01:40:16;;;;;;;;;;;;;;;13.80;59.30;100675.53;4445754;32;19985;-82
2022/10/13 01:42:47;;;;;;;;;;;;;;;13.77;59.47;100675.50;4447546;32;20016;-81
2022/10/13 01:45:15;;;;;;;;;;;;;;;13.88;59.13;100683.47;4447536;32;19980;-79
2022/10/13 01:47:42;;;;;;;;;;;;;;;13.81;59.23;100679.88;4448719;32;19992;-80
2022/10/13 01:50:08;;;;;;;;;;;;;;;13.58;60.01;100676.03;4455494;32;20349;-82
2022/10/13 01:52:37;;;;;;;;;;;;;;;13.39;60.46;100678.31;4470309;32;20392;-82
2022/10/13 01:55:07;;;;;;;;;;;;;;;13.40;60.58;100673.97;4443709;32;20023;-81
2022/10/13 01:57:35;;;;;;;;;;;;;;;13.65;59.67;100670.94;4426272;32;20030;-80
2022/10/13 02:00:05;;;;;;;;;;;;;;;13.41;60.58;100668.81;4420429;32;20322;-80
2022/10/13 02:02:40;;;;;;;;;;;;;;;13.65;59.53;100664.88;4447061;32;20045;-79
2022/10/13 02:05:11;;;;;;;;;;;;;;;13.55;59.82;100662.97;4447113;32;20038;-81
2022/10/13 02:07:43;;;;;;;;;;;;;;;13.66;59.35;100662.31;4431582;32;20100;-81
2022/10/13 02:10:16;;;;;;;;;;;;;;;13.67;59.20;100663.19;4421599;32;20000;-81
2022/10/13 02:12:44;;;;;;;;;;;;;;;13.60;59.18;100662.22;4433402;32;20378;-80
2022/10/13 02:15:12;;;;;;;;;;;;;;;13.52;59.70;100668.13;4448090;32;19993;-79
2022/10/13 02:17:42;;;;;;;;;;;;;;;13.65;59.24;100675.28;4433063;32;20441;-80
2022/10/13 02:20:09;;;;;;;;;;;;;;;13.66;59.28;100667.53;4433044;32;19985;-80
2022/10/13 02:22:38;;;;;;;;;;;;;;;13.56;59.82;100677.72;4432768;32;19980;-81
2022/10/13 02:25:05;;;;;;;;;;;;;;;13.64;59.23;100673.53;4430485;32;19999;-79
2022/10/13 02:27:32;;;;;;;;;;;;;;;13.48;59.78;100668.06;4434659;32;20330;-79
2022/10/13 02:29:59;;;;;;;;;;;;;;;13.55;59.44;100668.19;4432364;32;19989;-81
2022/10/13 02:32:27;;;;;;;;;;;;;;;13.64;59.12;100673.53;4435162;32;20038;-79
2022/10/13 02:34:54;;;;;;;;;;;;;;;13.41;59.89;100666.22;4425855;32;20008;-82
2022/10/13 02:37:24;;;;;;;;;;;;;;;13.45;59.58;100668.00;4445495;32;19981;-81
2022/10/13 02:39:51;;;;;;;;;;;;;;;13.59;59.06;100669.97;4447367;32;20030;-79
2022/10/13 02:42:18;;;;;;;;;;;;;;;13.63;58.92;100669.19;4445631;32;19987;-80
2022/10/13 02:44:45;;;;;;;;;;;;;;;13.58;59.08;100663.03;4446407;32;19993;-80
2022/10/13 02:47:12;;;;;;;;;;;;;;;13.64;59.12;100663.13;4423943;32;20022;-81
2022/10/13 02:49:39;;;;;;;;;;;;;;;13.66;58.84;100661.44;4445666;32;20026;-82
2022/10/13 02:52:09;;;;;;;;;;;;;;;13.44;59.48;100668.88;4448001;32;19995;-80
2022/10/13 02:54:40;;;;;;;;;;;;;;;13.64;58.58;100668.34;4433896;32;20003;-79
2022/10/13 02:57:07;;;;;;;;;;;;;;;13.71;58.13;100670.19;4448341;32;20150;-80
2022/10/13 02:59:34;;;;;;;;;;;;;;;13.23;59.57;100669.31;4432586;32;20768;-80
2022/10/13 03:02:01;;;;;;;;;;;;;;;13.37;59.08;100667.03;4446179;32;19992;-80
2022/10/13 03:04:28;;;;;;;;;;;;;;;13.30;59.07;100667.72;4446709;32;20087;-82
2022/10/13 03:06:56;;;;;;;;;;;;;;;13.33;59.05;100667.78;4452820;32;19980;-79
2022/10/13 03:09:22;;;;;;;;;;;;;;;13.18;59.35;100664.91;4449462;32;19989;-80
2022/10/13 03:11:49;;;;;;;;;;;;;;;13.28;59.17;100669.44;4435416;32;19969;-81
2022/10/13 03:14:16;;;;;;;;;;;;;;;13.35;58.55;100665.22;4453768;32;19997;-82
2022/10/13 03:16:43;;;;;;;;;;;;;;;13.33;58.52;100666.91;4450593;32;19981;-81
2022/10/13 03:19:11;;;;;;;;;;;;;;;13.18;58.89;100665.78;4462080;32;20044;-80
2022/10/13 03:21:38;;;;;;;;;;;;;;;13.07;59.36;100663.81;4445021;32;20002;-80
2022/10/13 03:24:05;;;;;;;;;;;;;;;13.25;58.99;100669.38;4444634;32;20008;-82
2022/10/13 03:26:32;;;;;;;;;;;;;;;12.84;60.18;100666.81;4438423;32;19985;-79
2022/10/13 03:28:59;;;;;;;;;;;;;;;13.03;59.26;100663.75;4447528;32;20034;-81
2022/10/13 03:31:25;;;;;;;;;;;;;;;13.25;58.40;100666.78;4462524;32;19972;-82
2022/10/13 03:33:58;;;;;;;;;;;;;;;13.08;58.91;100666.44;4475107;31;20289;-79
2022/10/13 03:36:25;;;;;;;;;;;;;;;13.23;58.33;100666.72;4453779;32;19984;-79
2022/10/13 03:38:52;;;;;;;;;;;;;;;13.16;58.80;100663.97;4449492;32;20038;-82
2022/10/13 03:41:19;;;;;;;;;;;;;;;13.07;59.05;100659.47;4460708;32;20334;-81
2022/10/13 03:43:48;;;;;;;;;;;;;;;13.12;58.86;100656.97;4452832;32;19996;-81
2022/10/13 03:46:16;;;;;;;;;;;;;;;13.01;59.08;100655.03;4462463;32;19988;-79
2022/10/13 03:48:44;;;;;;;;;;;;;;;13.03;59.07;100653.34;4467763;32;20289;-82
2022/10/13 03:51:16;;;;;;;;;;;;;;;13.00;59.11;100655.88;4460427;32;20003;-81
2022/10/13 03:53:44;;;;;;;;;;;;;;;13.07;58.91;100653.41;4447675;32;19984;-81
2022/10/13 03:56:16;;;;;;;;;;;;;;;13.08;58.79;100655.16;4460850;32;20306;-80
2022/10/13 03:58:52;;;;;;;;;;;;;;;12.84;59.33;100653.84;4447450;32;20000;-81
2022/10/13 04:01:20;;;;;;;;;;;;;;;12.86;59.27;100654.75;4452925;32;19980;-81
2022/10/13 04:03:48;;;;;;;;;;;;;;;13.03;58.23;100653.34;4463397;32;19995;-79
2022/10/13 04:06:15;;;;;;;;;;;;;;;12.91;58.76;100658.31;4463374;32;19977;-79
2022/10/13 04:08:42;;;;;;;;;;;;;;;12.86;58.60;100654.75;4463155;32;20254;-79
2022/10/13 04:11:10;;;;;;;;;;;;;;;12.89;58.70;100649.63;4462090;32;20239;-78
2022/10/13 04:13:39;;;;;;;;;;;;;;;13.07;58.09;100648.22;4470069;32;20007;-80
2022/10/13 04:16:13;;;;;;;;;;;;;;;12.63;59.17;100645.59;4450841;32;20331;-81
2022/10/13 04:18:40;;;;;;;;;;;;;;;12.80;58.80;100645.09;4449383;32;19999;-81
2022/10/13 04:21:11;;;;;;;;;;;;;;;12.83;58.71;100651.19;4457408;32;19977;-79
2022/10/13 04:23:37;;;;;;;;;;;;;;;12.83;58.34;100644.31;4467247;32;20575;-82
2022/10/13 04:26:05;;;;;;;;;;;;;;;12.77;58.62;100645.03;4444719;32;19995;-84
2022/10/13 04:28:36;;;;;;;;;;;;;;;12.70;58.75;100643.19;4445896;32;20290;-84
2022/10/13 04:31:03;;;;;;;;;;;;;;;12.70;58.95;100647.47;4451028;32;19961;-82
2022/10/13 04:33:30;;;;;;;;;;;;;;;12.65;58.78;100651.72;4444657;32;19982;-91
2022/10/13 04:35:56;;;;;;;;;;;;;;;12.79;58.10;100647.66;4449668;32;20032;-82
2022/10/13 04:38:23;;;;;;;;;;;;;;;12.70;58.17;100650.97;4457867;32;19993;-85
2022/10/13 04:40:50;;;;;;;;;;;;;;;12.42;59.42;100646.91;4461140;32;20330;-85
2022/10/13 04:43:17;;;;;;;;;;;;;;;12.54;58.86;100647.19;4461537;32;19985;-82
2022/10/13 04:45:43;;;;;;;;;;;;;;;12.57;58.77;100656.72;4459405;32;20037;-80
2022/10/13 04:48:10;;;;;;;;;;;;;;;12.68;58.23;100649.19;4460461;32;20360;-87
2022/10/13 04:50:37;;;;;;;;;;;;;;;12.78;58.02;100651.13;4454885;32;19992;-87
2022/10/13 04:53:04;;;;;;;;;;;;;;;12.75;58.27;100653.66;4449884;32;20005;-82
2022/10/13 04:55:33;;;;;;;;;;;;;;;12.66;58.72;100656.91;4448542;32;20028;-80
2022/10/13 04:58:00;;;;;;;;;;;;;;;12.47;59.38;100650.47;4457021;32;19984;-82
2022/10/13 05:00:27;;;;;;;;;;;;;;;12.60;58.66;100651.59;4453764;32;20310;-82
2022/10/13 05:02:54;;;;;;;;;;;;;;;12.48;58.82;100652.25;4445857;32;20000;-83
2022/10/13 05:05:20;;;;;;;;;;;;;;;12.51;58.66;100649.72;4445523;32;20027;-86
2022/10/13 05:07:47;;;;;;;;;;;;;;;12.44;59.03;100650.41;4456948;32;20050;-78
2022/10/13 05:10:14;;;;;;;;;;;;;;;12.29;59.34;100656.16;4473887;31;19973;-81
2022/10/13 05:12:41;;;;;;;;;;;;;;;12.41;59.21;100649.47;4449647;32;20745;-81
2022/10/13 05:15:08;;;;;;;;;;;;;;;12.62;58.41;100654.25;4446594;32;19989;-88
2022/10/13 05:17:35;;;;;;;;;;;;;;;12.55;58.44;100648.91;4452899;32;20070;-83
2022/10/13 05:20:04;;;;;;;;;;;;;;;12.67;58.01;100652.62;4464789;32;20417;-86
2022/10/13 05:22:31;;;;;;;;;;;;;;;12.75;57.88;100654.53;4460789;32;20017;-85
2022/10/13 05:24:58;;;;;;;;;;;;;;;12.50;58.79;100650.53;4468071;32;19996;-90
2022/10/13 05:27:26;;;;;;;;;;;;;;;12.43;59.17;100648.66;4461756;32;19980;-89
2022/10/13 05:29:53;;;;;;;;;;;;;;;12.51;59.04;100647.13;4456931;32;19973;-89
2022/10/13 05:32:20;;;;;;;;;;;;;;;12.40;59.60;100648.59;4452025;32;20353;-82
2022/10/13 05:34:47;;;;;;;;;;;;;;;12.55;59.01;100648.91;4460944;32;20045;-83
2022/10/13 05:37:16;;;;;;;;;;;;;;;12.59;58.91;100646.38;4459335;32;20823;-78
2022/10/13 05:39:43;;;;;;;;;;;;;;;12.63;58.99;100653.38;4463053;32;20018;-79
2022/10/13 05:42:14;;;;;;;;;;;;;;;12.45;59.64;100652.19;4466189;32;20012;-82
2022/10/13 05:44:41;;;;;;;;;;;;;;;12.49;59.65;100648.78;4461344;32;20034;-79
2022/10/13 05:47:08;;;;;;;;;;;;;;;12.67;59.46;100660.44;4463422;32;19989;-79
2022/10/13 05:49:38;;;;;;;;;;;;;;;12.61;60.02;100658.56;4473312;32;20061;-78
2022/10/13 05:52:06;;;;;;;;;;;;;;;12.66;60.13;100666.44;4471626;32;20328;-79
2022/10/13 05:54:38;;;;;;;;;;;;;;;12.70;60.32;100656.16;4455230;32;19995;-77
2022/10/13 05:57:26;;;;;;;;;;;;;;;12.62;61.00;100662.03;4448680;32;19981;-77
2022/10/13 05:59:57;;;;;;;;;;;;;;;12.32;62.66;100670.94;4447787;32;19977;-86
2022/10/13 06:02:25;;;;;;;;;;;;;;;12.61;61.91;100673.28;4462376;32;20477;-79
2022/10/13 06:04:52;;;;;;;;;;;;;;;12.82;61.49;100668.50;4469626;32;20003;-81
2022/10/13 06:07:19;;;;;;;;;;;;;;;12.96;61.41;100672.28;4461946;32;20066;-83
2022/10/13 06:09:46;;;;;;;;;;;;;;;13.14;61.15;100681.25;4458799;32;20030;-80
2022/10/13 06:12:13;;;;;;;;;;;;;;;13.03;61.85;100683.66;4446682;32;20008;-81
2022/10/13 06:14:40;;;;;;;;;;;;;;;13.36;60.71;100678.25;4444667;32;20027;-84
2022/10/13 06:17:12;;;;;;;;;;;;;;;13.32;61.09;100679.03;4301152;32;5089536;-86
2022/10/13 06:19:44;;;;;;;;;;;;;;;13.16;62.43;100680.44;4459731;32;20315;-87
2022/10/13 06:22:10;;;;;;;;;;;;;;;13.47;61.57;100681.94;4444636;32;19977;-82
2022/10/13 06:24:37;;;;;;;;;;;;;;;13.40;61.83;100684.37;4469937;32;20035;-87
2022/10/13 06:27:05;;;;;;;;;;;;;;;13.63;60.94;100682.19;4467805;32;20000;-88
2022/10/13 06:29:32;;;;;;;;;;;;;;;13.70;60.95;100684.06;4464846;32;20525;-87
2022/10/13 06:31:59;;;;;;;;;;;;;;;13.73;60.95;100684.09;4459064;32;19996;-88
2022/10/13 06:34:26;;;;;;;;;;;;;;;13.87;60.80;100677.37;4440953;32;20000;-84
2022/10/13 06:36:53;;;;;;;;;;;;;;;13.90;60.87;100677.44;4446869;32;20001;-88
2022/10/13 06:39:19;;;;;;;;;;;;;;;13.95;60.82;100682.72;4432295;32;19996;-88
2022/10/13 06:41:47;;;;;;;;;;;;;;;14.01;60.90;100684.53;4440728;32;20001;-86
2022/10/13 06:44:13;;;;;;;;;;;;;;;14.19;60.49;100684.81;4430808;32;19974;-88
2022/10/13 06:46:40;;;;;;;;;;;;;;;14.32;60.44;100681.53;4430914;32;19993;-89
2022/10/13 06:49:09;;;;;;;;;;;;;;;14.37;61.06;100689.44;4430904;32;19974;-87
2022/10/13 06:51:36;;;;;;;;;;;;;;;14.34;61.85;100679.84;4431472;32;19973;-90
2022/10/13 06:54:03;;;;;;;;;;;;;;;14.46;61.61;100681.75;4433461;32;20000;-89
2022/10/13 06:56:31;;;;;;;;;;;;;;;14.55;61.61;100683.63;4439980;32;20003;-92
2022/10/13 06:59:04;;;;;;;;;;;;;;;14.76;61.23;100678.69;4446759;32;19999;-89
2022/10/13 07:01:32;;;;;;;;;;;;;;;15.14;60.18;100670.44;4444781;32;19994;-88
2022/10/13 07:04:07;;;;;;;;;;;;;;;15.40;60.00;100673.31;4440374;32;20409;-84
2022/10/13 07:06:34;;;;;;;;;;;;;;;15.46;59.92;100669.91;4430480;32;19989;-90
2022/10/13 07:09:04;;;;;;;;;;;;;;;15.73;59.33;100674.50;4432587;32;19981;-87
2022/10/13 07:11:31;;;;;;;;;;;;;;;16.12;58.33;100665.25;4442515;32;19998;-83
2022/10/13 07:13:58;;;;;;;;;;;;;;;16.42;57.73;100664.56;4442646;32;19990;-88
2022/10/13 07:16:25;;;;;;;;;;;;;;;16.80;57.33;100671.75;4430256;32;20329;-91
2022/10/13 07:18:51;;;;;;;;;;;;;;;17.05;57.00;100670.97;4438262;32;19985;-84
2022/10/13 07:21:18;;;;;;;;;;;;;;;17.31;56.70;100670.16;4429552;32;20282;-85
2022/10/13 07:23:45;;;;;;;;;;;;;;;17.47;55.42;100666.69;4450868;32;20058;-80
2022/10/13 07:26:13;;;;;;;;;;;;;;;17.58;54.91;100664.97;4439324;32;19981;-82
2022/10/13 07:28:40;;;;;;;;;;;;;;;17.90;54.40;100664.13;4461146;32;19969;-84
2022/10/13 07:31:09;;;;;;;;;;;;;;;18.12;53.87;100665.84;4434897;32;20046;-78
2022/10/13 07:33:36;;;;;;;;;;;;;;;18.39;54.02;100666.66;4433612;32;19985;-84
2022/10/13 07:36:04;;;;;;;;;;;;;;;18.50;52.68;100664.84;4460460;32;20004;-84
2022/10/13 07:38:30;;;;;;;;;;;;;;;18.67;50.72;100666.56;4453875;32;19976;-86
2022/10/13 07:41:04;;;;;;;;;;;;;;;18.76;49.63;100666.53;4444974;32;20816;-84
2022/10/13 07:43:32;;;;;;;;;;;;;;;18.89;49.86;100663.00;4468054;32;19977;-80
2022/10/13 07:45:59;;;;;;;;;;;;;;;19.12;50.59;100664.63;4448207;32;20001;-88
2022/10/13 07:48:26;;;;;;;;;;;;;;;19.29;49.54;100663.63;4446991;32;20020;-83
2022/10/13 07:50:53;;;;;;;;;;;;;;;19.26;50.40;100662.78;4331186;31;20039;-83
2022/10/13 07:53:20;;;;;;;;;;;;;;;19.41;48.53;100667.94;4272893;32;20364;-87
2022/10/13 07:55:47;;;;;;;;;;;;;;;19.51;48.19;100659.09;4438958;32;20045;-80
2022/10/13 07:58:14;;;;;;;;;;;;;;;19.49;49.46;100660.87;4142652;32;10000698;-87
2022/10/13 08:00:41;;;;;;;;;;;;;;;19.40;47.96;100671.47;4438555;32;20003;-87
2022/10/13 08:03:08;;;;;;;;;;;;;;;19.57;47.77;100662.59;4442668;32;19996;-84
2022/10/13 08:05:38;;;;;;;;;;;;;;;19.44;47.77;100667.06;4445783;32;20030;-86
2022/10/13 08:08:04;;;;;;;;;;;;;;;19.87;46.81;100662.34;4431832;32;19977;-85
2022/10/13 08:10:31;;;;;;;;;;;;;;;19.94;46.38;100664.06;4442579;32;20323;-82
2022/10/13 08:12:58;;;;;;;;;;;;;;;19.98;46.28;100657.87;4435976;32;19986;-87
2022/10/13 08:15:25;;;;;;;;;;;;;;;20.18;45.28;100651.56;4437494;32;20361;-85
2022/10/13 08:17:52;;;;;;;;;;;;;;;19.93;46.20;100651.78;4445226;32;20024;-81
2022/10/13 08:20:20;;;;;;;;;;;;;;;19.89;46.35;100650.06;4341473;32;20362;-83
2022/10/13 08:22:47;;;;;;;;;;;;;;;20.12;45.50;100646.34;4456892;32;19985;-88
2022/10/13 08:25:14;;;;;;;;;;;;;;;20.26;46.46;100644.47;4444804;32;20363;-83
2022/10/13 08:27:41;;;;;;;;;;;;;;;20.44;44.64;100644.22;4441965;32;20000;-87
2022/10/13 08:30:18;;;;;;;;;;;;;;;20.01;44.81;100643.84;4433885;32;19995;-83
2022/10/13 08:32:45;;;;;;;;;;;;;;;20.18;46.60;100643.66;4432235;32;19996;-84
2022/10/13 08:35:12;;;;;;;;;;;;;;;20.33;44.72;100635.62;4454975;32;19985;-86
2022/10/13 08:37:39;;;;;;;;;;;;;;;20.27;44.21;100633.06;4446399;32;19993;-89
2022/10/13 08:40:06;;;;;;;;;;;;;;;20.50;46.29;100631.91;4459038;32;19989;-86
2022/10/13 08:42:32;;;;;;;;;;;;;;;20.74;45.24;100639.53;4445209;32;20003;-83
2022/10/13 08:45:00;;;;;;;;;;;;;;;20.48;44.48;100628.41;4446480;32;19977;-84
2022/10/13 08:47:48;;;;;;;;;;;;;;;20.53;43.46;100638.03;4435949;32;20278;-84
2022/10/13 08:50:17;;;;;;;;;;;;;;;20.43;42.98;100626.72;4445289;32;19995;-83
2022/10/13 08:53:04;;;;;;;;;;;;;;;20.74;42.42;100626.38;4433175;32;20112;-88
2022/10/13 08:55:34;;;;;;;;;;;;;;;20.73;41.80;100619.38;4458965;32;20000;-85
2022/10/13 08:58:01;;;;;;;;;;;;;;;20.79;42.52;100624.56;4458921;32;20318;-82
2022/10/13 09:00:28;;;;;;;;;;;;;;;20.62;42.93;100619.53;4445781;32;20760;-84
2022/10/13 09:03:22;;;;;;;;;;;;;;;20.48;44.18;100620.53;4461081;32;20004;-79
2022/10/13 09:05:55;;;;;;;;;;;;;;;21.04;41.79;100621.59;4459046;32;19988;-87
2022/10/13 09:08:22;;;;;;;;;;;;;;;21.20;40.75;100625.72;4458820;32;20785;-86
2022/10/13 09:10:49;;;;;;;;;;;;;;;21.28;40.21;100623.87;4432814;32;19977;-83
2022/10/13 09:13:17;;;;;;;;;;;;;;;21.08;41.86;100625.91;4436140;32;19997;-86
2022/10/13 09:15:44;;;;;;;;;;;;;;;20.66;43.14;100617.72;4447535;32;20529;-82
2022/10/13 09:18:12;;;;;;;;;;;;;;;21.09;42.84;100622.38;4446904;32;19977;-86
2022/10/13 09:20:39;;;;;;;;;;;;;;;21.00;42.57;100614.62;4427614;32;20015;-84
2022/10/13 09:23:17;;;;;;;;;;;;;;;20.97;42.50;100612.03;4432355;32;20635;-85
2022/10/13 09:25:48;;;;;;;;;;;;;;;21.11;42.79;100610.94;4428117;32;20385;-87
2022/10/13 09:28:18;;;;;;;;;;;;;;;20.87;43.17;100612.16;4433002;32;19991;-90
2022/10/13 09:30:45;;;;;;;;;;;;;;;21.47;41.95;100602.50;4429059;32;19992;-83
2022/10/13 09:33:20;;;;;;;;;;;;;;;21.72;40.10;100609.09;4433083;32;20385;-86
2022/10/13 09:35:59;;;;;;;;;;;;;;;21.34;43.28;100596.53;4442580;32;19993;-90
2022/10/13 09:38:26;;;;;;;;;;;;;;;21.98;39.90;100606.00;4445476;32;19988;-83
2022/10/13 09:41:04;;;;;;;;;;;;;;;21.79;40.78;100601.97;4410954;32;20251;-84
2022/10/13 09:43:36;;;;;;;;;;;;;;;21.63;39.42;100598.72;4433295;32;20015;-84
2022/10/13 09:46:03;;;;;;;;;;;;;;;21.59;39.24;100602.31;4426694;32;20052;-89
2022/10/13 09:48:32;;;;;;;;;;;;;;;21.58;40.22;100592.69;4429460;32;20345;-86
2022/10/13 09:50:58;;;;;;;;;;;;;;;21.86;39.60;100592.16;4405018;32;19981;-85
2022/10/13 09:53:31;;;;;;;;;;;;;;;21.58;41.00;100590.03;4429832;32;20044;-84
2022/10/13 09:56:06;;;;;;;;;;;;;;;21.59;40.28;100597.91;4429242;32;20790;-83
2022/10/13 09:58:33;;;;;;;;;;;;;;;21.19;43.60;100597.66;4424955;32;19999;-87
2022/10/13 10:01:00;;;;;;;;;;;;;;;21.27;42.14;100584.38;4435665;32;19976;-87
2022/10/13 10:03:34;;;;;;;;;;;;;;;21.31;43.85;100592.22;4462808;32;19985;-85
2022/10/13 10:06:02;;;;;;;;;;;;;;;21.55;42.88;100593.59;4446383;32;20072;-81
2022/10/13 10:08:32;;;;;;;;;;;;;;;21.57;42.01;100585.69;4441623;32;20004;-84
2022/10/13 10:11:38;;;;;;;;;;;;;;;21.61;40.56;100589.13;4447524;32;19977;-83
2022/10/13 10:14:14;;;;;;;;;;;;;;;21.82;40.49;100589.63;4446984;32;20433;-82
2022/10/13 10:16:42;;;;;;;;;;;;;;;21.60;40.58;100582.97;4432231;32;20008;-84
2022/10/13 10:19:12;;;;;;;;;;;;;;;21.90;41.38;100580.69;4434922;32;20012;-88
2022/10/13 10:21:42;;;;;;;;;;;;;;;21.98;41.00;100581.41;4439024;32;19993;-80
2022/10/13 10:24:28;;;;;;;;;;;;;;;22.06;40.44;100582.13;4441368;32;19996;-88
2022/10/13 10:26:57;;;;;;;;;;;;;;;22.12;40.56;100576.75;4448214;32;20320;-85
2022/10/13 10:29:33;;;;;;;;;;;;;;;22.32;39.51;100567.59;4432296;32;19985;-86
2022/10/13 10:32:12;;;;;;;;;;;;;;;22.24;39.23;100563.34;4455787;32;19973;-84
2022/10/13 10:34:42;;;;;;;;;;;;;;;22.22;40.08;100573.06;4461054;32;20491;-83
2022/10/13 10:37:17;;;;;;;;;;;;;;;22.79;38.55;100563.06;4460994;32;20008;-83
2022/10/13 10:40:02;;;;;;;;;;;;;;;22.65;38.29;100556.31;4432486;32;19999;-88
2022/10/13 10:42:49;;;;;;;;;;;;;;;22.65;38.69;100556.31;4444203;32;20434;-84
2022/10/13 10:45:34;;;;;;;;;;;;;;;22.43;38.91;100555.03;4435442;32;20416;-86
2022/10/13 10:48:03;;;;;;;;;;;;;;;22.15;41.64;100554.72;4444923;32;20324;-81
2022/10/13 10:50:30;;;;;;;;;;;;;;;22.46;39.40;100547.94;4454519;32;20046;-86
2022/10/13 10:53:00;;;;;;;;;;;;;;;22.67;38.88;100537.81;4419789;32;19976;-83
2022/10/13 10:55:36;;;;;;;;;;;;;;;22.64;39.90;100538.75;4446110;32;20025;-81
2022/10/13 10:58:18;;;;;;;;;;;;;;;22.82;40.40;100531.31;4455416;32;20321;-85
2022/10/13 11:00:54;;;;;;;;;;;;;;;22.50;39.56;100535.56;4430773;32;19980;-81
2022/10/13 11:03:25;;;;;;;;;;;;;;;22.51;39.97;100532.00;4455756;32;20003;-84
2022/10/13 11:05:59;;;;;;;;;;;;;;;22.49;41.19;100531.16;4443007;32;20004;-82
2022/10/13 11:08:26;;;;;;;;;;;;;;;22.69;39.45;100521.03;4446674;32;19996;-85
2022/10/13 11:11:22;;;;;;;;;;;;;;;23.09;39.94;100522.75;4445049;32;19981;-83
2022/10/13 11:14:06;;;;;;;;;;;;;;;22.60;39.32;100521.25;4432842;32;19981;-82
2022/10/13 11:16:32;;;;;;;;;;;;;;;22.62;41.74;100519.47;4457918;32;20027;-84
2022/10/13 11:19:06;;;;;;;;;;;;;;;22.67;40.35;100509.66;4461715;32;19972;-82
2022/10/13 11:22:02;;;;;;;;;;;;;;;22.93;40.17;100502.88;4457393;32;19990;-83
2022/10/13 11:24:33;;;;;;;;;;;;;;;23.12;39.72;100501.56;4443545;32;19991;-82
2022/10/13 11:27:10;;;;;;;;;;;;;;;23.28;40.26;100498.53;4431102;32;20028;-88
2022/10/13 11:29:45;;;;;;;;;;;;;;;23.47;40.14;100499.78;4446271;32;19993;-85
2022/10/13 11:32:29;;;;;;;;;;;;;;;23.31;40.00;100499.31;4444268;32;20193;-82
2022/10/13 11:35:05;;;;;;;;;;;;;;;22.89;41.21;100501.22;4444825;32;20274;-83
2022/10/13 11:37:51;;;;;;;;;;;;;;;23.31;39.36;100487.87;4444307;32;20048;-82
2022/10/13 11:40:41;;;;;;;;;;;;;;;23.25;38.97;100488.03;4445693;32;20001;-86
2022/10/13 11:43:26;;;;;;;;;;;;;;;23.16;40.41;100484.72;4444570;32;20011;-84
2022/10/13 11:46:02;;;;;;;;;;;;;;;23.06;37.34;100483.22;4442645;32;20299;-87
2022/10/13 11:48:33;;;;;;;;;;;;;;;23.02;39.25;100481.56;4436057;32;20009;-83
2022/10/13 11:51:09;;;;;;;;;;;;;;;23.12;39.13;100466.38;4427844;32;20326;-83
2022/10/13 11:53:49;;;;;;;;;;;;;;;23.37;37.83;100461.31;4448513;32;20004;-83
2022/10/13 11:56:21;;;;;;;;;;;;;;;23.41;38.30;100463.81;4433149;32;19973;-85
2022/10/13 11:58:47;;;;;;;;;;;;;;;23.40;38.29;100461.22;4434119;32;19985;-83
2022/10/13 12:01:15;;;;;;;;;;;;;;;23.30;39.01;100459.75;4435009;32;19985;-85
2022/10/13 12:03:42;;;;;;;;;;;;;;;23.21;38.22;100461.72;4435754;32;20004;-88
2022/10/13 12:06:32;;;;;;;;;;;;;;;23.26;37.51;100455.44;4431219;32;20013;-85
2022/10/13 12:09:00;;;;;;;;;;;;;;;23.03;38.75;100448.97;4431394;32;20005;-83
2022/10/13 12:11:31;;;;;;;;;;;;;;;23.26;37.88;100452.78;4444366;32;20000;-83
2022/10/13 12:13:59;;;;;;;;;;;;;;;22.70;38.06;100453.28;4423718;32;20042;-82
2022/10/13 12:16:27;;;;;;;;;;;;;;;22.58;38.45;100449.16;4431125;32;20000;-83
2022/10/13 12:19:05;;;;;;;;;;;;;;;22.84;38.14;100445.03;4431042;32;19997;-83
2022/10/13 12:21:32;;;;;;;;;;;;;;;22.85;38.44;100452.06;4442587;32;19992;-83
2022/10/13 12:24:08;;;;;;;;;;;;;;;23.30;38.55;100443.91;4442726;32;19985;-86
2022/10/13 12:26:37;;;;;;;;;;;;;;;22.76;37.88;100437.31;4442545;32;19991;-86
2022/10/13 12:29:04;;;;;;;;;;;;;;;23.03;39.95;100435.75;4444377;32;20000;-85
2022/10/13 12:31:41;;;;;;;;;;;;;;;23.45;39.30;100438.16;4430604;32;19997;-86
2022/10/13 12:34:19;;;;;;;;;;;;;;;23.29;39.46;100434.22;4430223;32;20000;-82
2022/10/13 12:36:50;;;;;;;;;;;;;;;23.19;38.77;100426.53;4431249;32;19988;-82
2022/10/13 12:39:24;;;;;;;;;;;;;;;22.97;39.06;100420.06;4431616;32;19981;-84
2022/10/13 12:41:51;;;;;;;;;;;;;;;22.50;39.74;100427.37;4433221;32;20839;-85
2022/10/13 12:44:24;;;;;;;;;;;;;;;23.09;39.83;100418.91;4416695;32;19981;-83
2022/10/13 12:46:52;;;;;;;;;;;;;;;23.09;37.35;100413.63;4432129;32;20001;-85
2022/10/13 12:49:19;;;;;;;;;;;;;;;22.61;38.72;100412.16;4432464;32;19997;-85
2022/10/13 12:51:47;;;;;;;;;;;;;;;22.74;39.00;100413.56;4431986;32;19989;-84